createdAt,value
2023-05-24T00:02:20.584Z,90.50
2023-05-24T00:04:49.444Z,90.40
2023-05-24T00:07:16.616Z,90.50
2023-05-24T00:09:43.533Z,90.50
2023-05-24T00:12:10.518Z,90.70
2023-05-24T00:14:37.329Z,90.70
2023-05-24T00:17:04.374Z,90.80
2023-05-24T00:19:31.263Z,90.90
2023-05-24T00:21:58.609Z,91.00
2023-05-24T00:24:25.620Z,91.10
2023-05-24T00:26:52.471Z,91.20
2023-05-24T00:29:19.301Z,91.30
2023-05-24T00:31:52.348Z,91.40
2023-05-24T00:34:19.364Z,91.40
2023-05-24T00:36:46.410Z,91.50
2023-05-24T00:39:13.175Z,91.60
2023-05-24T00:41:40.046Z,91.70
2023-05-24T00:44:06.883Z,91.70
2023-05-24T00:46:35.160Z,91.70
2023-05-24T00:49:02.382Z,91.70
2023-05-24T00:51:30.248Z,91.80
2023-05-24T00:53:57.322Z,91.90
2023-05-24T00:56:24.212Z,92.00
2023-05-24T00:58:54.756Z,92.10
2023-05-24T01:01:25.861Z,92.20
2023-05-24T01:03:54.244Z,92.30
2023-05-24T01:06:21.786Z,92.40
2023-05-24T01:09:24.664Z,92.60
2023-05-24T01:12:00.589Z,92.80
2023-05-24T01:14:38.837Z,92.90
2023-05-24T01:17:24.102Z,93.00
2023-05-24T01:20:06.724Z,93.20
2023-05-24T01:23:02.519Z,93.30
2023-05-24T01:26:09.743Z,93.40
2023-05-24T01:28:39.129Z,93.60
2023-05-24T01:31:07.370Z,93.70
2023-05-24T01:33:34.329Z,93.80
2023-05-24T01:36:01.155Z,94.00
2023-05-24T01:38:27.954Z,94.00
2023-05-24T01:41:05.672Z,94.20
2023-05-24T01:43:42.749Z,94.40
2023-05-24T01:46:37.845Z,94.50
2023-05-24T01:49:25.085Z,94.60
2023-05-24T01:51:57.997Z,94.70
2023-05-24T01:54:28.327Z,94.80
2023-05-24T01:56:57.564Z,94.90
2023-05-24T01:59:26.793Z,95.00
2023-05-24T02:01:53.998Z,95.20
2023-05-24T02:04:20.904Z,95.30
2023-05-24T02:06:47.674Z,95.40
2023-05-24T02:09:14.549Z,95.60
2023-05-24T02:11:41.391Z,95.70
2023-05-24T02:14:08.225Z,95.70
2023-05-24T02:16:42.427Z,95.80
2023-05-24T02:19:09.786Z,95.90
2023-05-24T02:21:36.619Z,96.00
2023-05-24T02:24:03.534Z,96.10
2023-05-24T02:26:30.736Z,96.20
2023-05-24T02:28:57.498Z,96.30
2023-05-24T02:31:28.568Z,96.30
2023-05-24T02:33:59.184Z,96.30
2023-05-24T02:36:26.094Z,96.30
2023-05-24T02:38:53.108Z,96.30
2023-05-24T02:41:20.345Z,96.30
2023-05-24T02:43:48.313Z,96.40
2023-05-24T02:46:15.644Z,96.50
2023-05-24T02:48:45.396Z,96.50
2023-05-24T02:51:12.203Z,96.50
2023-05-24T02:53:39.063Z,96.60
2023-05-24T02:56:07.486Z,96.70
2023-05-24T02:58:34.356Z,96.70
2023-05-24T03:01:01.826Z,96.80
2023-05-24T03:03:28.860Z,96.80
2023-05-24T03:05:55.708Z,96.70
2023-05-24T03:08:22.620Z,96.80
2023-05-24T03:10:49.404Z,96.80
2023-05-24T03:13:19.012Z,96.90
2023-05-24T03:15:46.669Z,96.90
2023-05-24T03:18:13.508Z,96.90
2023-05-24T03:20:40.861Z,97.00
2023-05-24T03:23:09.735Z,97.00
2023-05-24T03:25:36.534Z,97.10
2023-05-24T03:28:03.511Z,97.20
2023-05-24T03:30:30.309Z,97.20
2023-05-24T03:32:57.214Z,97.20
2023-05-24T03:35:24.188Z,97.30
2023-05-24T03:37:51.051Z,97.30
2023-05-24T03:40:17.821Z,97.30
2023-05-24T03:42:44.731Z,97.30
2023-05-24T03:45:11.673Z,97.30
2023-05-24T03:47:38.562Z,97.40
2023-05-24T03:50:05.871Z,97.50
2023-05-24T03:52:32.719Z,97.50
2023-05-24T03:54:59.570Z,97.50
2023-05-24T03:57:26.388Z,97.60
2023-05-24T03:59:53.187Z,97.60
2023-05-24T04:02:20.100Z,97.70
2023-05-24T04:04:47.062Z,97.70
2023-05-24T04:07:15.470Z,97.80
2023-05-24T04:09:43.183Z,97.90
2023-05-24T04:12:10.020Z,98.00
2023-05-24T04:14:36.854Z,98.10
2023-05-24T04:17:05.816Z,98.10
2023-05-24T04:19:32.734Z,98.00
2023-05-24T04:21:59.618Z,98.00
2023-05-24T04:24:26.386Z,97.90
2023-05-24T04:26:53.349Z,97.90
2023-05-24T04:29:20.245Z,98.00
2023-05-24T04:31:49.074Z,98.10
2023-05-24T04:34:16.129Z,98.40
2023-05-24T04:36:42.961Z,98.60
2023-05-24T04:39:10.009Z,98.20
2023-05-24T04:41:37.311Z,98.20
2023-05-24T04:44:04.347Z,98.20
2023-05-24T04:46:31.595Z,98.30
2023-05-24T04:48:58.561Z,98.30
2023-05-24T04:51:25.618Z,98.30
2023-05-24T04:53:52.812Z,98.40
2023-05-24T04:56:20.025Z,98.50
2023-05-24T04:58:47.684Z,98.50
2023-05-24T05:01:14.813Z,98.50
2023-05-24T05:03:41.995Z,98.60
2023-05-24T05:06:08.870Z,98.70
2023-05-24T05:08:35.713Z,98.80
2023-05-24T05:11:02.948Z,98.80
2023-05-24T05:13:29.816Z,98.90
2023-05-24T05:15:56.618Z,98.90
2023-05-24T05:18:23.477Z,98.90
2023-05-24T05:20:50.539Z,99.00
2023-05-24T05:23:18.674Z,99.00
2023-05-24T05:25:45.743Z,99.10
2023-05-24T05:28:12.604Z,99.20
2023-05-24T05:30:39.425Z,99.40
2023-05-24T05:33:06.418Z,99.60
2023-05-24T05:35:33.375Z,99.60
2023-05-24T05:38:00.207Z,99.50
2023-05-24T05:40:27.004Z,99.30
2023-05-24T05:42:53.786Z,99.00
2023-05-24T05:45:20.878Z,98.70
2023-05-24T05:47:47.736Z,98.30
2023-05-24T05:50:14.525Z,97.80
2023-05-24T05:52:41.404Z,97.30
2023-05-24T05:55:09.353Z,96.70
2023-05-24T05:57:36.183Z,96.10
2023-05-24T06:00:03.939Z,95.20
2023-05-24T06:02:31.114Z,94.40
2023-05-24T06:04:58.266Z,93.80
2023-05-24T06:07:25.178Z,93.40
2023-05-24T06:09:51.956Z,93.40
2023-05-24T06:12:18.816Z,93.30
2023-05-24T06:14:48.282Z,92.80
2023-05-24T06:17:15.185Z,92.20
2023-05-24T06:19:45.667Z,91.10
2023-05-24T06:22:12.705Z,90.00
2023-05-24T06:24:39.940Z,87.60
2023-05-24T06:27:06.809Z,84.80
2023-05-24T06:29:33.687Z,84.00
2023-05-24T06:32:00.652Z,82.30
2023-05-24T06:34:28.271Z,79.30
2023-05-24T06:36:55.156Z,76.00
2023-05-24T06:39:22.056Z,73.00
2023-05-24T06:41:51.458Z,71.40
2023-05-24T06:44:18.520Z,70.20
2023-05-24T06:46:45.515Z,69.10
2023-05-24T06:49:12.736Z,67.00
2023-05-24T06:51:39.830Z,65.70
2023-05-24T06:54:06.987Z,64.10
2023-05-24T06:56:33.951Z,62.60
2023-05-24T06:59:01.213Z,61.20
2023-05-24T07:01:29.378Z,60.40
2023-05-24T07:03:56.354Z,59.90
2023-05-24T07:06:23.300Z,59.50
2023-05-24T07:08:50.101Z,59.80
2023-05-24T07:11:17.418Z,60.70
2023-05-24T07:13:44.443Z,61.90
2023-05-24T07:16:12.066Z,62.10
2023-05-24T07:18:41.784Z,63.30
2023-05-24T07:21:08.981Z,64.40
2023-05-24T07:23:37.088Z,62.70
2023-05-24T07:26:05.085Z,59.90
2023-05-24T07:28:32.318Z,58.50
2023-05-24T07:30:59.131Z,56.70
2023-05-24T07:33:26.089Z,56.80
2023-05-24T07:35:53.854Z,57.40
2023-05-24T07:38:21.252Z,56.10
2023-05-24T07:40:48.296Z,54.40
2023-05-24T07:43:15.449Z,54.90
2023-05-24T07:45:42.563Z,54.80
2023-05-24T07:48:09.541Z,55.40
2023-05-24T07:50:36.392Z,55.70
2023-05-24T07:53:03.265Z,52.60
2023-05-24T07:55:30.121Z,51.30
2023-05-24T07:57:57.060Z,49.50
2023-05-24T08:00:24.070Z,49.10
2023-05-24T08:02:51.031Z,48.90
2023-05-24T08:05:24.003Z,49.30
2023-05-24T08:07:50.874Z,49.50
2023-05-24T08:10:18.736Z,48.40
2023-05-24T08:12:45.815Z,46.50
2023-05-24T08:15:12.706Z,45.80
2023-05-24T08:17:40.002Z,44.20
2023-05-24T08:20:09.996Z,43.60
2023-05-24T08:22:37.778Z,44.20
2023-05-24T08:25:06.251Z,44.00
2023-05-24T08:27:33.219Z,42.20
2023-05-24T08:30:00.064Z,40.90
2023-05-24T08:32:27.259Z,41.20
2023-05-24T08:35:03.617Z,41.20
2023-05-24T08:37:37.894Z,40.90
2023-05-24T08:40:05.336Z,40.80
2023-05-24T08:42:32.342Z,40.80
2023-05-24T08:45:03.936Z,41.00
2023-05-24T08:47:32.608Z,41.00
2023-05-24T08:50:00.277Z,42.70
2023-05-24T08:52:28.589Z,43.60
2023-05-24T08:54:56.478Z,44.60
2023-05-24T08:57:23.957Z,44.60
2023-05-24T08:59:51.039Z,42.50
2023-05-24T09:02:18.337Z,41.80
2023-05-24T09:04:48.740Z,39.00
2023-05-24T09:07:18.407Z,38.40
2023-05-24T09:10:05.056Z,38.20
2023-05-24T09:12:38.711Z,38.40
2023-05-24T09:15:08.002Z,38.30
2023-05-24T09:17:36.814Z,37.20
2023-05-24T09:20:07.234Z,35.90
2023-05-24T09:22:40.323Z,36.20
2023-05-24T09:25:09.896Z,36.40
2023-05-24T09:27:38.513Z,36.10
2023-05-24T09:30:10.311Z,36.30
2023-05-24T09:32:38.089Z,35.60
2023-05-24T09:35:09.637Z,36.40
2023-05-24T09:37:39.067Z,35.90
2023-05-24T09:40:08.072Z,34.90
2023-05-24T09:42:34.986Z,34.50
2023-05-24T09:45:33.551Z,34.20
2023-05-24T09:48:01.130Z,35.90
2023-05-24T09:50:28.264Z,36.90
2023-05-24T09:52:56.748Z,37.40
2023-05-24T09:55:24.066Z,37.30
2023-05-24T09:57:53.617Z,35.80
2023-05-24T10:00:24.352Z,34.70
2023-05-24T10:03:03.183Z,34.90
2023-05-24T10:05:36.579Z,35.90
2023-05-24T10:08:06.705Z,36.10
2023-05-24T10:10:34.243Z,37.20
2023-05-24T10:13:02.658Z,38.30
2023-05-24T10:15:30.856Z,37.40
2023-05-24T10:17:59.701Z,36.20
2023-05-24T10:20:26.974Z,36.90
2023-05-24T10:23:02.099Z,37.60
2023-05-24T10:25:30.048Z,37.00
2023-05-24T10:28:12.001Z,37.70
2023-05-24T10:31:07.461Z,37.90
2023-05-24T10:33:37.993Z,38.90
2023-05-24T10:36:09.595Z,39.50
2023-05-24T10:38:44.001Z,38.60
2023-05-24T10:41:13.214Z,39.50
2023-05-24T10:43:40.886Z,40.30
2023-05-24T10:46:10.065Z,41.30
2023-05-24T10:48:45.747Z,42.00
2023-05-24T10:51:34.861Z,41.70
2023-05-24T10:54:25.121Z,41.80
2023-05-24T10:56:53.201Z,40.90
2023-05-24T10:59:30.823Z,40.70
2023-05-24T11:02:01.959Z,42.30
2023-05-24T11:04:41.061Z,41.80
2023-05-24T11:07:11.835Z,42.60
2023-05-24T11:09:46.444Z,43.70
2023-05-24T11:12:18.183Z,44.10
2023-05-24T11:14:53.087Z,45.30
2023-05-24T11:17:22.866Z,44.90
2023-05-24T11:19:53.573Z,44.70
2023-05-24T11:22:23.587Z,45.10
2023-05-24T11:24:52.432Z,40.50
2023-05-24T11:27:19.472Z,39.90
2023-05-24T11:29:50.926Z,39.40
2023-05-24T11:32:19.888Z,39.50
2023-05-24T11:34:51.276Z,38.40
2023-05-24T11:37:18.983Z,37.70
2023-05-24T11:39:52.929Z,38.50
2023-05-24T11:42:22.741Z,40.40
2023-05-24T11:44:50.638Z,40.60
2023-05-24T11:47:20.944Z,41.00
2023-05-24T11:49:52.065Z,41.00
2023-05-24T11:52:18.931Z,41.40
2023-05-24T11:54:46.263Z,41.90
2023-05-24T11:57:14.169Z,41.00
2023-05-24T11:59:41.829Z,40.40
2023-05-24T12:02:21.157Z,40.80
2023-05-24T12:04:50.644Z,38.80
2023-05-24T12:07:18.111Z,37.90
2023-05-24T12:09:45.284Z,38.10
2023-05-24T12:12:12.322Z,36.70
2023-05-24T12:14:39.759Z,37.70
2023-05-24T12:17:14.624Z,39.70
2023-05-24T12:19:43.896Z,39.20
2023-05-24T12:22:10.865Z,37.90
2023-05-24T12:24:38.444Z,37.60
2023-05-24T12:27:07.824Z,37.70
2023-05-24T12:29:35.839Z,35.30
2023-05-24T12:32:03.621Z,34.70
2023-05-24T12:34:30.634Z,35.70
2023-05-24T12:36:58.022Z,36.10
2023-05-24T12:39:45.992Z,37.10
2023-05-24T12:42:13.783Z,37.20
2023-05-24T12:44:42.059Z,38.70
2023-05-24T12:47:09.620Z,37.60
2023-05-24T12:49:51.287Z,35.60
2023-05-24T12:52:18.369Z,35.80
2023-05-24T12:54:45.380Z,36.10
2023-05-24T12:57:12.362Z,36.20
2023-05-24T12:59:39.672Z,37.60
2023-05-24T13:02:06.931Z,37.00
2023-05-24T13:04:36.106Z,37.60
2023-05-24T13:07:05.924Z,37.50
2023-05-24T13:09:34.401Z,38.60
2023-05-24T13:12:16.772Z,39.50
2023-05-24T13:14:45.086Z,40.10
2023-05-24T13:17:12.257Z,40.40
2023-05-24T13:19:39.337Z,40.60
2023-05-24T13:22:06.535Z,41.20
2023-05-24T13:24:33.731Z,41.70
2023-05-24T13:27:01.045Z,42.00
2023-05-24T13:29:39.387Z,42.10
2023-05-24T13:32:07.065Z,42.40
2023-05-24T13:34:35.537Z,42.80
2023-05-24T13:37:10.222Z,43.10
2023-05-24T13:39:38.843Z,43.20
2023-05-24T13:42:06.705Z,43.10
2023-05-24T13:44:33.671Z,44.00
2023-05-24T13:47:00.798Z,43.30
2023-05-24T13:49:30.328Z,43.50
2023-05-24T13:51:58.662Z,43.60
2023-05-24T13:54:26.547Z,43.70
2023-05-24T13:56:57.210Z,43.90
2023-05-24T13:59:24.859Z,44.10
2023-05-24T14:01:51.829Z,43.90
2023-05-24T14:04:18.779Z,43.50
2023-05-24T14:06:46.036Z,43.70
2023-05-24T14:09:15.360Z,43.50
2023-05-24T14:11:42.494Z,43.80
2023-05-24T14:16:43.140Z,44.60
2023-05-24T14:19:12.951Z,45.80
2023-05-24T14:21:41.608Z,44.70
2023-05-24T14:24:09.914Z,44.50
2023-05-24T14:26:37.090Z,44.50
2023-05-24T14:29:03.980Z,45.00
2023-05-24T14:31:34.260Z,45.30
2023-05-24T14:34:06.995Z,45.30
2023-05-24T14:36:34.736Z,45.30
2023-05-24T14:39:01.871Z,45.90
2023-05-24T14:41:29.046Z,45.90
2023-05-24T14:43:56.014Z,46.00
2023-05-24T14:46:23.204Z,46.30
2023-05-24T14:48:51.132Z,46.60
2023-05-24T14:51:19.261Z,47.00
2023-05-24T14:53:46.214Z,46.90
2023-05-24T14:56:14.857Z,47.50
2023-05-24T14:58:45.369Z,47.90
2023-05-24T15:01:12.484Z,47.80
2023-05-24T15:03:41.281Z,47.70
2023-05-24T15:06:08.438Z,47.30
2023-05-24T15:08:35.949Z,47.50
2023-05-24T15:11:02.961Z,47.70
2023-05-24T15:13:30.031Z,47.70
2023-05-24T15:16:00.377Z,48.10
2023-05-24T15:18:30.204Z,48.80
2023-05-24T15:20:57.529Z,48.60
2023-05-24T15:23:25.150Z,48.90
2023-05-24T15:25:52.334Z,48.40
2023-05-24T15:28:20.011Z,48.50
2023-05-24T15:30:47.520Z,48.20
2023-05-24T15:33:17.182Z,48.30
2023-05-24T15:35:45.253Z,48.70
2023-05-24T15:38:12.390Z,49.10
2023-05-24T15:40:42.270Z,49.30
2023-05-24T15:43:09.429Z,49.10
2023-05-24T15:45:36.538Z,49.40
2023-05-24T15:48:07.019Z,49.60
2023-05-24T15:50:54.011Z,49.60
2023-05-24T15:53:21.767Z,48.90
2023-05-24T15:55:50.219Z,48.70
2023-05-24T15:58:17.475Z,49.00
2023-05-24T16:01:10.001Z,48.80
2023-05-24T16:03:38.455Z,49.00
2023-05-24T16:06:06.623Z,48.90
2023-05-24T16:08:34.337Z,49.00
2023-05-24T16:11:03.734Z,48.70
2023-05-24T16:13:32.853Z,48.90
2023-05-24T16:16:00.467Z,49.10
2023-05-24T16:18:36.445Z,48.60
2023-05-24T16:21:04.730Z,48.50
2023-05-24T16:23:34.313Z,49.10
2023-05-24T16:26:12.240Z,49.30
2023-05-24T16:28:42.528Z,49.40
2023-05-24T16:31:10.302Z,49.40
2023-05-24T16:36:32.853Z,50.20
2023-05-24T16:39:01.667Z,50.00
2023-05-24T16:41:35.570Z,49.90
2023-05-24T16:44:09.970Z,50.50
2023-05-24T16:46:42.144Z,50.80
2023-05-24T16:49:10.971Z,50.80
2023-05-24T16:51:38.298Z,50.90
2023-05-24T16:54:13.248Z,51.40
2023-05-24T16:56:44.984Z,51.90
2023-05-24T16:59:12.628Z,52.20
2023-05-24T17:01:40.139Z,52.20
2023-05-24T17:04:08.450Z,52.70
2023-05-24T17:06:44.159Z,53.00
2023-05-24T17:09:11.224Z,53.40
2023-05-24T17:11:39.866Z,53.40
2023-05-24T17:14:07.003Z,53.60
2023-05-24T17:16:34.309Z,53.90
2023-05-24T17:19:01.483Z,53.90
2023-05-24T17:21:30.091Z,54.20
2023-05-24T17:23:58.668Z,54.20
2023-05-24T17:26:27.633Z,54.00
2023-05-24T17:28:59.231Z,54.10
2023-05-24T17:31:26.513Z,54.40
2023-05-24T17:33:53.409Z,54.50
2023-05-24T17:36:22.469Z,55.00
2023-05-24T17:38:49.294Z,55.20
2023-05-24T17:41:18.286Z,55.20
2023-05-24T17:43:45.746Z,55.30
2023-05-24T17:46:13.712Z,55.10
2023-05-24T17:48:43.549Z,55.10
2023-05-24T17:51:11.192Z,55.40
2023-05-24T17:53:39.050Z,55.70
2023-05-24T17:56:08.436Z,56.00
2023-05-24T17:58:39.306Z,56.20
2023-05-24T18:01:07.574Z,56.40
2023-05-24T18:03:39.367Z,56.60
2023-05-24T18:06:07.247Z,56.60
2023-05-24T18:08:44.539Z,56.80
2023-05-24T18:11:14.575Z,56.90
2023-05-24T18:13:43.114Z,57.40
2023-05-24T18:16:11.134Z,57.50
2023-05-24T18:18:38.693Z,57.70
2023-05-24T18:21:09.794Z,58.00
2023-05-24T18:23:40.378Z,58.30
2023-05-24T18:26:09.478Z,58.60
2023-05-24T18:28:37.899Z,58.80
2023-05-24T18:31:10.496Z,58.90
2023-05-24T18:33:38.534Z,59.30
2023-05-24T18:36:06.479Z,59.40
2023-05-24T18:38:34.502Z,60.20
2023-05-24T18:41:05.714Z,59.90
2023-05-24T18:43:33.412Z,60.30
2023-05-24T18:46:00.482Z,60.60
2023-05-24T18:48:27.699Z,61.20
2023-05-24T18:50:56.057Z,61.60
2023-05-24T18:53:23.098Z,61.90
2023-05-24T18:55:53.609Z,62.20
2023-05-24T18:58:20.570Z,62.60
2023-05-24T19:00:51.002Z,62.80
2023-05-24T19:03:22.204Z,63.30
2023-05-24T19:05:49.618Z,63.70
2023-05-24T19:08:17.042Z,63.60
2023-05-24T19:10:44.176Z,63.80
2023-05-24T19:13:13.825Z,64.40
2023-05-24T19:15:43.609Z,65.00
2023-05-24T19:18:10.669Z,65.40
2023-05-24T19:20:37.877Z,65.90
2023-05-24T19:23:04.880Z,66.30
2023-05-24T19:25:31.849Z,66.50
2023-05-24T19:28:00.492Z,66.70
2023-05-24T19:30:28.005Z,66.70
2023-05-24T19:32:55.087Z,67.00
2023-05-24T19:35:22.230Z,67.40
2023-05-24T19:37:53.951Z,67.70
2023-05-24T19:40:21.368Z,67.90
2023-05-24T19:42:48.289Z,68.30
2023-05-24T19:45:15.355Z,68.70
2023-05-24T19:47:44.744Z,69.30
2023-05-24T19:50:14.634Z,69.60
2023-05-24T19:52:42.205Z,70.00
2023-05-24T19:55:09.698Z,70.40
2023-05-24T19:57:36.861Z,70.80
2023-05-24T20:00:07.173Z,70.90
2023-05-24T20:02:36.433Z,71.20
2023-05-24T20:05:04.001Z,71.40
2023-05-24T20:07:31.684Z,71.70
2023-05-24T20:09:58.635Z,72.40
2023-05-24T20:12:26.027Z,72.30
2023-05-24T20:14:52.990Z,72.60
2023-05-24T20:17:19.896Z,72.80
2023-05-24T20:19:46.860Z,73.10
2023-05-24T20:22:16.530Z,73.30
2023-05-24T20:24:43.382Z,73.60
2023-05-24T20:27:10.357Z,73.90
2023-05-24T20:29:37.212Z,74.00
2023-05-24T20:32:04.376Z,74.00
2023-05-24T20:34:31.958Z,74.30
2023-05-24T20:36:58.976Z,74.70
2023-05-24T20:39:25.822Z,75.70
2023-05-24T20:41:52.779Z,75.30
2023-05-24T20:44:19.808Z,75.50
2023-05-24T20:46:46.815Z,75.80
2023-05-24T20:49:13.726Z,76.30
2023-05-24T20:51:40.560Z,76.50
2023-05-24T20:54:07.508Z,76.90
2023-05-24T20:56:34.497Z,77.20
2023-05-24T20:59:02.427Z,77.30
2023-05-24T21:01:29.496Z,77.70
2023-05-24T21:03:56.773Z,78.70
2023-05-24T21:06:23.983Z,78.50
2023-05-24T21:08:51.051Z,78.90
2023-05-24T21:11:17.917Z,79.00
2023-05-24T21:13:44.803Z,79.10
2023-05-24T21:16:11.727Z,79.50
2023-05-24T21:18:40.213Z,79.90
2023-05-24T21:21:07.418Z,80.10
2023-05-24T21:23:34.432Z,80.40
2023-05-24T21:26:02.425Z,80.60
2023-05-24T21:28:29.398Z,81.00
2023-05-24T21:30:56.343Z,81.30
2023-05-24T21:33:24.558Z,81.60
2023-05-24T21:35:51.898Z,82.00
2023-05-24T21:38:18.729Z,82.20
2023-05-24T21:40:45.641Z,82.40
2023-05-24T21:43:12.593Z,82.60
2023-05-24T21:45:39.985Z,82.90
2023-05-24T21:48:07.875Z,83.20
2023-05-24T21:50:35.736Z,83.60
2023-05-24T21:53:03.173Z,83.80
2023-05-24T21:55:30.078Z,84.10
2023-05-24T21:57:57.074Z,84.40
2023-05-24T22:00:28.301Z,84.70
2023-05-24T22:02:55.499Z,85.00
2023-05-24T22:05:22.636Z,85.10
2023-05-24T22:07:49.554Z,85.50
2023-05-24T22:10:16.793Z,85.70
2023-05-24T22:12:43.927Z,86.00
2023-05-24T22:15:10.974Z,86.70
2023-05-24T22:17:41.162Z,87.10
2023-05-24T22:20:09.578Z,87.30
2023-05-24T22:22:40.128Z,87.30
2023-05-24T22:25:08.868Z,87.60
2023-05-24T22:27:36.050Z,87.70
2023-05-24T22:30:03.054Z,88.00
2023-05-24T22:32:30.347Z,88.30
2023-05-24T22:34:57.477Z,88.50
2023-05-24T22:37:24.400Z,88.80
2023-05-24T22:39:51.365Z,89.00
2023-05-24T22:42:18.949Z,89.20
2023-05-24T22:44:46.650Z,89.60
2023-05-24T22:47:14.293Z,89.90
2023-05-24T22:49:41.540Z,90.00
2023-05-24T22:52:09.095Z,90.30
2023-05-24T22:54:36.343Z,90.40
2023-05-24T22:57:03.348Z,90.60
2023-05-24T22:59:32.521Z,90.70
2023-05-24T23:01:59.689Z,90.90
2023-05-24T23:04:34.966Z,91.00
2023-05-24T23:07:01.959Z,91.00
2023-05-24T23:09:34.277Z,91.20
2023-05-24T23:12:08.481Z,91.30
2023-05-24T23:14:39.754Z,91.40
2023-05-24T23:17:13.461Z,91.70
2023-05-24T23:19:44.612Z,91.90
2023-05-24T23:22:13.290Z,92.00
2023-05-24T23:24:42.687Z,92.00
2023-05-24T23:27:10.089Z,92.20
2023-05-24T23:29:40.278Z,92.30
2023-05-24T23:32:08.446Z,92.50
2023-05-24T23:34:36.318Z,92.60
2023-05-24T23:37:07.386Z,93.00
2023-05-24T23:39:34.770Z,92.80
2023-05-24T23:42:02.699Z,93.10
2023-05-24T23:44:29.733Z,92.90
2023-05-24T23:46:57.014Z,93.20
2023-05-24T23:49:24.612Z,93.30
2023-05-24T23:51:51.585Z,93.30
2023-05-24T23:54:21.364Z,93.50
2023-05-24T23:56:48.629Z,93.60
2023-05-24T23:59:17.119Z,93.80
